Terminal Aerodrome Forecast
Issued by NWS Quad Cities IA IL

Home | Current Version | Previous Version | Text Only | Print | Product List | Glossary On
Versions: 1 2 3 4 5 6 7 8 9 10 11 12 13 14 15 16
004
FTUS43 KDVN 061326 AAA
TAFMLI
TAF AMD
KMLI 061326Z 0613/0712 23005KT P6SM SCT020
     FM061700 23007KT P6SM SCT020 SCT150
     FM070300 22009KT P6SM BKN090=

USA.gov is the U.S. government's official web portal to all federal, state and local government web resources and services.